Flight Track Log - Related Links

Times and Time Zones

All times are in EDT time to prevent confusion due to time zone crossing. See the ASH2834 flight status page for this flight to view local times or setup timezone preferences in your user account.

Time Position Orientation Groundspeed Altitude Reporting Facility
EDT Latitude Longitude Course Direction KTS MPH feet Rate Location/Type
Fri 10:37:04 PM 33.8333 -118.1833 68° East 165 190 1,800  Level Southern California TRACON
Fri 10:37:32 PM 33.8344 -118.2036 274° West 198 228 2,800 2,733 Climbing Los Angeles Center
Fri 10:38:34 PM 33.7783 -118.2242 197° South 210 242 5,900 3,000 Climbing Los Angeles Center
Fri 10:39:36 PM 33.7164 -118.2442 195° South 222 255 9,000 2,565 Climbing Los Angeles Center
Fri 10:40:00 PM 33.5834 -117.9675 90° East  Level FlightAware Approximate
Fri 10:40:38 PM 33.6506 -118.2336 172° South 256 295 11,200  Level Los Angeles Center
Fri 10:41:00 PM 33.5833 -117.8273 90° East  Level FlightAware Approximate
Fri 10:41:51 PM 33.6097 -118.1481 120° Southeast 322 371 12,500  Level Los Angeles Center
Fri 10:42:00 PM 33.5976 -117.6905 68° East  Level FlightAware Approximate
Fri 10:42:54 PM 33.6142 -118.0072 88° East 351 404 15,700  Level Los Angeles Center
Fri 10:43:55 PM 33.6156 -117.8847 89° East 368 423 18,300 2,537 Climbing Los Angeles Center
Fri 10:44:57 PM 33.6175 -117.7283 89° East 389 448 20,900 2,129 Climbing Los Angeles Center
Fri 10:45:59 PM 33.6194 -117.5939 89° East 403 464 22,700 1,512 Climbing Los Angeles Center
Fri 10:47:00 PM 33.6214 -117.4478 89° East 432 497 24,000 1,610 Climbing Los Angeles Center
Fri 10:48:02 PM 33.6228 -117.2975 89° East 449 517 26,000 1,935 Climbing Los Angeles Center
Fri 10:49:04 PM 33.6239 -117.1464 89° East 454 522 28,000 1,951 Climbing Los Angeles Center
Fri 10:50:05 PM 33.6247 -116.9953 90° East 454 522 30,000 1,463 Climbing Los Angeles Center
Fri 10:51:07 PM 33.6253 -116.8183 90° East 455 524 31,000 484 Climbing Los Angeles Center
Fri 10:52:09 PM 33.6272 -116.6897 89° East 474 545 31,000  Level Los Angeles Center
Fri 10:53:11 PM 33.6264 -116.4939 90° East 488 562 31,000  Level Los Angeles Center
Fri 10:54:12 PM 33.6275 -116.3225 90° East 503 579 31,000  Level Los Angeles Center
Fri 10:55:14 PM 33.6183 -116.1494 94° East 514 592 31,000  Level Los Angeles Center
Fri 10:56:16 PM 33.6072 -115.9772 94° East 515 593 31,000  Level Los Angeles Center
Fri 10:57:17 PM 33.5939 -115.8064 95° East 512 589 31,000  Level Los Angeles Center
Fri 10:58:19 PM 33.5831 -115.6361 94° East 513 590 31,000  Level Los Angeles Center
Fri 10:59:21 PM 33.5708 -115.4681 95° East 509 586 31,000  Level Los Angeles Center
Fri 11:00:22 PM 33.5567 -115.2669 95° East 505 581 31,000  Level Los Angeles Center
Fri 11:01:24 PM 33.5431 -115.0992 96° East 505 581 31,000  Level Los Angeles Center
Fri 11:02:38 PM 33.5303 -114.9314 95° East 506 582 31,000 -485 Level Los Angeles Center
Fri 11:03:40 PM 33.5153 -114.7431 95° East 469 540 29,900 -1,086 Descending Los Angeles Center
Fri 11:04:34 PM 33.5044 -114.5992 95° East 468 539 28,900 -1,043 Descending Albuquerque Center
Fri 11:05:35 PM 33.4914 -114.4475 96° East 460 529 27,900 -984 Descending Albuquerque Center
Fri 11:06:36 PM 33.4781 -114.2914 96° East 463 533 26,900 -984 Descending Albuquerque Center
Fri 11:07:37 PM 33.4661 -114.1372 95° East 465 535 25,900 -934 Descending Albuquerque Center
Fri 11:08:38 PM 33.4461 -113.9883 99° East 461 531 25,000 -836 Descending Albuquerque Center
Fri 11:09:39 PM 33.4167 -113.8461 104° East 451 519 24,200 -1,180 Descending Albuquerque Center
Fri 11:10:40 PM 33.3883 -113.7086 104° East 434 499 22,600 -1,512 Descending Albuquerque Center
Fri 11:11:42 PM 33.3617 -113.5783 104° East 411 473 21,100 -1,475 Descending Albuquerque Center
Fri 11:12:42 PM 33.3342 -113.4483 104° East 404 465 19,600 -1,574 Descending Albuquerque Center
Fri 11:13:44 PM 33.3092 -113.3206 103° East 398 458 17,900 -1,512 Descending Albuquerque Center
Fri 11:14:45 PM 33.2825 -113.1950 104° East 392 451 16,500 -1,426 Descending Albuquerque Center
Fri 11:15:46 PM 33.2747 -113.0525 94° East 359 413 15,000 -1,377 Descending Albuquerque Center
Fri 11:16:47 PM 33.2778 -112.9392 88° East 345 397 13,700 -1,377 Descending Albuquerque Center
Fri 11:17:48 PM 33.2806 -112.8319 88° East 331 381 12,200 -1,475 Descending Albuquerque Center
Fri 11:18:49 PM 33.3100 -112.7411 69° East 301 346 10,700 -1,463 Descending Albuquerque Center
Fri 11:19:51 PM 33.3417 -112.6569 66° East 284 327 9,200 -1,268 Descending Albuquerque Center
Fri 11:20:52 PM 33.3692 -112.5786 67° East 275 316 8,100 -738 Descending Albuquerque Center
Fri 11:21:53 PM 33.3950 -112.4947 70° East 268 308 7,700 -639 Descending Albuquerque Center
Fri 11:22:54 PM 33.4175 -112.4217 70° East 239 275 6,800 -836 Descending Albuquerque Center
Fri 11:23:55 PM 33.4425 -112.3350 71° East 230 265 6,000 -976 Descending Albuquerque Center
Fri 11:24:57 PM 33.4411 -112.2572 91° East 237 273 4,800 -1,122 Descending Albuquerque Center
Fri 11:25:58 PM 33.4408 -112.1836 90° East 224 258 3,700 -1,033 Descending Albuquerque Center
Fri 11:26:59 PM 33.4403 -112.1244 91° East 184 212 2,700 -984 Descending Albuquerque Center

Login

Don't have an account? Register now (free) for customized features, flight alerts, and more!